sensor_id;sensor_type;location;lat;lon;timestamp;pressure;altitude;pressure_sealevel;temperature;humidity
20023;BME280;10172;42.054;24.546;2024-01-11T00:02:20;99364.97;;;-3.39;76.03
20023;BME280;10172;42.054;24.546;2024-01-11T00:04:45;99363.88;;;-3.22;74.88
20023;BME280;10172;42.054;24.546;2024-01-11T00:07:11;99364.19;;;-3.03;75.01
20023;BME280;10172;42.054;24.546;2024-01-11T00:09:41;99360.44;;;-3.60;75.74
20023;BME280;10172;42.054;24.546;2024-01-11T00:12:06;99373.47;;;-3.68;76.28
20023;BME280;10172;42.054;24.546;2024-01-11T00:14:32;99353.59;;;-3.61;76.83
20023;BME280;10172;42.054;24.546;2024-01-11T00:16:57;99356.88;;;-3.59;77.03
20023;BME280;10172;42.054;24.546;2024-01-11T00:19:22;99348.53;;;-3.77;76.95
20023;BME280;10172;42.054;24.546;2024-01-11T00:21:48;99345.56;;;-3.97;78.10
20023;BME280;10172;42.054;24.546;2024-01-11T00:24:13;99333.88;;;-3.70;77.73
20023;BME280;10172;42.054;24.546;2024-01-11T00:26:39;99319.00;;;-3.39;76.14
20023;BME280;10172;42.054;24.546;2024-01-11T00:29:04;99325.75;;;-3.30;75.25
20023;BME280;10172;42.054;24.546;2024-01-11T00:31:29;99329.41;;;-3.39;75.53
20023;BME280;10172;42.054;24.546;2024-01-11T00:33:55;99324.31;;;-3.32;75.00
20023;BME280;10172;42.054;24.546;2024-01-11T00:36:20;99306.59;;;-3.29;75.13
20023;BME280;10172;42.054;24.546;2024-01-11T00:38:46;99286.06;;;-3.61;76.44
20023;BME280;10172;42.054;24.546;2024-01-11T00:41:11;99293.00;;;-3.16;74.95
20023;BME280;10172;42.054;24.546;2024-01-11T00:43:37;99284.09;;;-3.22;74.86
20023;BME280;10172;42.054;24.546;2024-01-11T00:46:02;99273.63;;;-3.14;73.91
20023;BME280;10172;42.054;24.546;2024-01-11T00:48:27;99275.59;;;-3.68;76.91
20023;BME280;10172;42.054;24.546;2024-01-11T00:50:53;99282.22;;;-2.99;73.67
20023;BME280;10172;42.054;24.546;2024-01-11T00:53:18;99271.13;;;-3.07;74.01
20023;BME280;10172;42.054;24.546;2024-01-11T00:55:44;99272.53;;;-2.76;72.62
20023;BME280;10172;42.054;24.546;2024-01-11T00:58:09;99269.56;;;-3.02;73.63
20023;BME280;10172;42.054;24.546;2024-01-11T01:00:34;99275.84;;;-3.25;74.62
20023;BME280;10172;42.054;24.546;2024-01-11T01:03:00;99264.41;;;-3.16;74.14
20023;BME280;10172;42.054;24.546;2024-01-11T01:05:25;99261.34;;;-3.72;76.03
20023;BME280;10172;42.054;24.546;2024-01-11T01:07:50;99265.41;;;-3.55;76.38
20023;BME280;10172;42.054;24.546;2024-01-11T01:10:16;99263.97;;;-3.57;76.64
20023;BME280;10172;42.054;24.546;2024-01-11T01:12:41;99268.22;;;-3.27;75.61
20023;BME280;10172;42.054;24.546;2024-01-11T01:15:07;99264.31;;;-3.97;77.83
20023;BME280;10172;42.054;24.546;2024-01-11T01:17:32;99266.00;;;-3.67;78.07
20023;BME280;10172;42.054;24.546;2024-01-11T01:19:58;99249.94;;;-3.71;76.27
20023;BME280;10172;42.054;24.546;2024-01-11T01:22:23;99253.53;;;-3.05;74.49
20023;BME280;10172;42.054;24.546;2024-01-11T01:24:48;99251.47;;;-2.81;74.88
20023;BME280;10172;42.054;24.546;2024-01-11T01:27:14;99245.19;;;-2.36;73.47
20023;BME280;10172;42.054;24.546;2024-01-11T01:29:39;99239.75;;;-1.98;72.40
20023;BME280;10172;42.054;24.546;2024-01-11T01:32:05;99241.28;;;-1.62;71.55
20023;BME280;10172;42.054;24.546;2024-01-11T01:34:30;99237.09;;;-1.84;71.19
20023;BME280;10172;42.054;24.546;2024-01-11T01:36:55;99243.50;;;-1.59;70.69
20023;BME280;10172;42.054;24.546;2024-01-11T01:39:21;99234.66;;;-1.37;69.74
20023;BME280;10172;42.054;24.546;2024-01-11T01:41:46;99236.59;;;-2.36;71.93
20023;BME280;10172;42.054;24.546;2024-01-11T01:44:12;99240.63;;;-3.28;75.80
20023;BME280;10172;42.054;24.546;2024-01-11T01:46:37;99242.72;;;-3.23;75.83
20023;BME280;10172;42.054;24.546;2024-01-11T01:49:03;99242.31;;;-3.50;76.69
20023;BME280;10172;42.054;24.546;2024-01-11T01:51:31;99234.06;;;-2.95;74.52
20023;BME280;10172;42.054;24.546;2024-01-11T01:53:57;99228.97;;;-3.32;74.87
20023;BME280;10172;42.054;24.546;2024-01-11T01:56:23;99233.63;;;-3.42;75.87
20023;BME280;10172;42.054;24.546;2024-01-11T01:58:51;99228.44;;;-3.13;75.51
20023;BME280;10172;42.054;24.546;2024-01-11T02:01:18;99228.38;;;-3.05;74.26
20023;BME280;10172;42.054;24.546;2024-01-11T02:03:45;99231.84;;;-3.27;75.73
20023;BME280;10172;42.054;24.546;2024-01-11T02:06:13;99235.50;;;-2.92;73.43
20023;BME280;10172;42.054;24.546;2024-01-11T02:08:39;99236.56;;;-2.72;72.77
20023;BME280;10172;42.054;24.546;2024-01-11T02:11:05;99228.44;;;-2.84;73.70
20023;BME280;10172;42.054;24.546;2024-01-11T02:13:32;99221.25;;;-2.82;73.56
20023;BME280;10172;42.054;24.546;2024-01-11T02:15:57;99211.50;;;-3.53;76.04
20023;BME280;10172;42.054;24.546;2024-01-11T02:18:23;99227.00;;;-3.59;76.73
20023;BME280;10172;42.054;24.546;2024-01-11T02:20:48;99211.53;;;-3.75;77.20
20023;BME280;10172;42.054;24.546;2024-01-11T02:23:19;99214.34;;;-3.04;74.99
20023;BME280;10172;42.054;24.546;2024-01-11T02:25:46;99206.03;;;-3.43;75.42
20023;BME280;10172;42.054;24.546;2024-01-11T02:28:12;99210.31;;;-3.65;76.95
20023;BME280;10172;42.054;24.546;2024-01-11T02:30:37;99200.28;;;-3.53;75.90
20023;BME280;10172;42.054;24.546;2024-01-11T02:33:04;99200.13;;;-3.37;75.12
20023;BME280;10172;42.054;24.546;2024-01-11T02:35:31;99203.72;;;-3.38;75.53
20023;BME280;10172;42.054;24.546;2024-01-11T02:37:57;99205.03;;;-2.84;73.36
20023;BME280;10172;42.054;24.546;2024-01-11T02:40:23;99189.56;;;-2.70;72.46
20023;BME280;10172;42.054;24.546;2024-01-11T02:42:50;99190.16;;;-2.33;71.82
20023;BME280;10172;42.054;24.546;2024-01-11T02:45:16;99194.19;;;-2.30;71.89
20023;BME280;10172;42.054;24.546;2024-01-11T02:47:41;99189.97;;;-2.52;73.61
20023;BME280;10172;42.054;24.546;2024-01-11T02:50:07;99190.16;;;-3.04;74.22
20023;BME280;10172;42.054;24.546;2024-01-11T02:52:33;99184.16;;;-2.90;73.20
20023;BME280;10172;42.054;24.546;2024-01-11T02:54:58;99188.22;;;-2.66;72.18
20023;BME280;10172;42.054;24.546;2024-01-11T02:57:24;99188.53;;;-2.91;71.42
20023;BME280;10172;42.054;24.546;2024-01-11T02:59:51;99188.50;;;-2.76;71.76
20023;BME280;10172;42.054;24.546;2024-01-11T03:02:16;99186.09;;;-2.92;72.75
20023;BME280;10172;42.054;24.546;2024-01-11T03:04:42;99177.88;;;-2.96;72.75
20023;BME280;10172;42.054;24.546;2024-01-11T03:07:07;99187.94;;;-3.22;74.05
20023;BME280;10172;42.054;24.546;2024-01-11T03:09:33;99176.38;;;-3.19;73.70
20023;BME280;10172;42.054;24.546;2024-01-11T03:11:59;99174.78;;;-3.50;74.27
20023;BME280;10172;42.054;24.546;2024-01-11T03:14:24;99168.13;;;-3.37;74.37
20023;BME280;10172;42.054;24.546;2024-01-11T03:16:50;99170.81;;;-3.46;74.14
20023;BME280;10172;42.054;24.546;2024-01-11T03:19:15;99164.53;;;-3.51;75.70
20023;BME280;10172;42.054;24.546;2024-01-11T03:21:45;99162.31;;;-3.39;75.44
20023;BME280;10172;42.054;24.546;2024-01-11T03:24:10;99155.03;;;-3.15;74.52
20023;BME280;10172;42.054;24.546;2024-01-11T03:26:36;99165.56;;;-2.87;72.58
20023;BME280;10172;42.054;24.546;2024-01-11T03:29:01;99164.59;;;-3.01;73.52
20023;BME280;10172;42.054;24.546;2024-01-11T03:31:27;99151.66;;;-2.37;71.60
20023;BME280;10172;42.054;24.546;2024-01-11T03:33:52;99164.84;;;-2.81;72.63
20023;BME280;10172;42.054;24.546;2024-01-11T03:36:17;99160.91;;;-2.92;73.45
20023;BME280;10172;42.054;24.546;2024-01-11T03:38:43;99164.81;;;-2.66;72.08
20023;BME280;10172;42.054;24.546;2024-01-11T03:41:09;99165.03;;;-2.61;71.49
20023;BME280;10172;42.054;24.546;2024-01-11T03:43:37;99157.50;;;-2.35;71.15
20023;BME280;10172;42.054;24.546;2024-01-11T03:46:03;99160.22;;;-2.43;71.33
20023;BME280;10172;42.054;24.546;2024-01-11T03:48:29;99146.50;;;-1.88;69.37
20023;BME280;10172;42.054;24.546;2024-01-11T03:50:54;99155.41;;;-2.82;73.08
20023;BME280;10172;42.054;24.546;2024-01-11T03:53:20;99149.75;;;-3.21;74.45
20023;BME280;10172;42.054;24.546;2024-01-11T03:55:45;99147.53;;;-3.54;75.95
20023;BME280;10172;42.054;24.546;2024-01-11T03:58:10;99148.69;;;-3.27;74.04
20023;BME280;10172;42.054;24.546;2024-01-11T04:00:36;99148.03;;;-3.00;73.30
20023;BME280;10172;42.054;24.546;2024-01-11T04:03:01;99143.94;;;-3.67;76.65
20023;BME280;10172;42.054;24.546;2024-01-11T04:05:27;99134.19;;;-3.65;76.29
20023;BME280;10172;42.054;24.546;2024-01-11T04:07:53;99139.34;;;-3.80;76.17
20023;BME280;10172;42.054;24.546;2024-01-11T04:10:18;99131.66;;;-3.59;76.38
20023;BME280;10172;42.054;24.546;2024-01-11T04:12:44;99122.19;;;-3.01;74.88
20023;BME280;10172;42.054;24.546;2024-01-11T04:15:12;99132.50;;;-2.93;73.73
20023;BME280;10172;42.054;24.546;2024-01-11T04:17:38;99129.25;;;-2.59;73.12
20023;BME280;10172;42.054;24.546;2024-01-11T04:20:05;99126.50;;;-2.30;71.48
20023;BME280;10172;42.054;24.546;2024-01-11T04:22:30;99130.78;;;-2.44;71.54
20023;BME280;10172;42.054;24.546;2024-01-11T04:24:56;99131.72;;;-2.51;71.30
20023;BME280;10172;42.054;24.546;2024-01-11T04:27:21;99136.56;;;-2.69;72.31
20023;BME280;10172;42.054;24.546;2024-01-11T04:29:46;99133.97;;;-2.48;71.39
20023;BME280;10172;42.054;24.546;2024-01-11T04:32:12;99134.31;;;-2.51;71.25
20023;BME280;10172;42.054;24.546;2024-01-11T04:34:37;99138.59;;;-2.44;70.55
20023;BME280;10172;42.054;24.546;2024-01-11T04:37:03;99141.97;;;-2.01;69.23
20023;BME280;10172;42.054;24.546;2024-01-11T04:39:28;99147.47;;;-2.38;69.24
20023;BME280;10172;42.054;24.546;2024-01-11T04:41:53;99135.94;;;-2.50;70.33
20023;BME280;10172;42.054;24.546;2024-01-11T04:44:19;99141.47;;;-2.39;69.70
20023;BME280;10172;42.054;24.546;2024-01-11T04:46:44;99136.75;;;-2.50;69.82
20023;BME280;10172;42.054;24.546;2024-01-11T04:49:09;99138.25;;;-2.62;70.60
20023;BME280;10172;42.054;24.546;2024-01-11T04:51:35;99141.00;;;-2.42;70.17
20023;BME280;10172;42.054;24.546;2024-01-11T04:54:01;99142.47;;;-2.76;71.26
20023;BME280;10172;42.054;24.546;2024-01-11T04:56:26;99139.19;;;-2.84;71.24
20023;BME280;10172;42.054;24.546;2024-01-11T04:58:51;99134.72;;;-2.33;69.93
20023;BME280;10172;42.054;24.546;2024-01-11T05:01:17;99132.84;;;-2.60;70.51
20023;BME280;10172;42.054;24.546;2024-01-11T05:03:44;99134.06;;;-2.56;71.40
20023;BME280;10172;42.054;24.546;2024-01-11T05:06:18;99134.81;;;-2.41;71.55
20023;BME280;10172;42.054;24.546;2024-01-11T05:08:47;99121.69;;;-2.33;69.24
20023;BME280;10172;42.054;24.546;2024-01-11T05:11:21;99128.31;;;-2.73;71.00
20023;BME280;10172;42.054;24.546;2024-01-11T05:13:47;99115.50;;;-2.75;72.20
20023;BME280;10172;42.054;24.546;2024-01-11T05:18:44;99116.34;;;-2.67;69.90
20023;BME280;10172;42.054;24.546;2024-01-11T05:21:10;99106.38;;;-2.85;71.21
20023;BME280;10172;42.054;24.546;2024-01-11T05:23:35;99113.53;;;-3.08;71.81
20023;BME280;10172;42.054;24.546;2024-01-11T05:26:01;99093.63;;;-3.16;71.73
20023;BME280;10172;42.054;24.546;2024-01-11T05:28:27;99101.56;;;-3.24;73.01
20023;BME280;10172;42.054;24.546;2024-01-11T05:30:52;99109.16;;;-2.87;71.18
20023;BME280;10172;42.054;24.546;2024-01-11T05:33:18;99106.72;;;-2.73;69.94
20023;BME280;10172;42.054;24.546;2024-01-11T05:35:43;99106.50;;;-2.30;69.64
20023;BME280;10172;42.054;24.546;2024-01-11T05:38:08;99103.09;;;-2.51;69.70
20023;BME280;10172;42.054;24.546;2024-01-11T05:40:34;99109.41;;;-1.90;68.52
20023;BME280;10172;42.054;24.546;2024-01-11T05:42:59;99111.38;;;-2.20;68.73
20023;BME280;10172;42.054;24.546;2024-01-11T05:45:24;99118.84;;;-2.59;70.21
20023;BME280;10172;42.054;24.546;2024-01-11T05:47:50;99122.47;;;-2.75;71.44
20023;BME280;10172;42.054;24.546;2024-01-11T05:50:15;99113.88;;;-2.33;69.30
20023;BME280;10172;42.054;24.546;2024-01-11T05:52:41;99108.31;;;-2.51;69.63
20023;BME280;10172;42.054;24.546;2024-01-11T05:55:06;99117.72;;;-2.71;70.41
20023;BME280;10172;42.054;24.546;2024-01-11T05:57:32;99098.03;;;-2.59;71.04
20023;BME280;10172;42.054;24.546;2024-01-11T05:59:57;99101.25;;;-2.79;69.54
20023;BME280;10172;42.054;24.546;2024-01-11T06:02:23;99106.22;;;-3.63;73.37
20023;BME280;10172;42.054;24.546;2024-01-11T06:04:48;99102.81;;;-4.07;75.61
20023;BME280;10172;42.054;24.546;2024-01-11T06:07:14;99096.28;;;-3.30;72.83
20023;BME280;10172;42.054;24.546;2024-01-11T06:09:40;99097.50;;;-3.12;71.71
20023;BME280;10172;42.054;24.546;2024-01-11T06:12:05;99097.75;;;-3.07;71.23
20023;BME280;10172;42.054;24.546;2024-01-11T06:14:31;99095.47;;;-3.31;73.50
20023;BME280;10172;42.054;24.546;2024-01-11T06:16:56;99094.06;;;-2.55;70.63
20023;BME280;10172;42.054;24.546;2024-01-11T06:19:23;99097.63;;;-2.99;71.27
20023;BME280;10172;42.054;24.546;2024-01-11T06:21:48;99094.91;;;-3.12;71.87
20023;BME280;10172;42.054;24.546;2024-01-11T06:24:14;99092.09;;;-2.75;70.58
20023;BME280;10172;42.054;24.546;2024-01-11T06:26:39;99092.25;;;-2.97;71.96
20023;BME280;10172;42.054;24.546;2024-01-11T06:29:04;99087.75;;;-2.89;71.50
20023;BME280;10172;42.054;24.546;2024-01-11T06:31:30;99094.69;;;-2.53;71.14
20023;BME280;10172;42.054;24.546;2024-01-11T06:33:55;99097.16;;;-3.23;72.83
20023;BME280;10172;42.054;24.546;2024-01-11T06:36:21;99090.91;;;-3.29;74.49
20023;BME280;10172;42.054;24.546;2024-01-11T06:38:46;99087.53;;;-3.08;73.22
20023;BME280;10172;42.054;24.546;2024-01-11T06:41:12;99085.34;;;-2.69;70.91
20023;BME280;10172;42.054;24.546;2024-01-11T06:43:37;99079.31;;;-2.91;71.47
20023;BME280;10172;42.054;24.546;2024-01-11T06:46:04;99077.69;;;-2.92;72.23
20023;BME280;10172;42.054;24.546;2024-01-11T06:48:30;99078.28;;;-3.11;73.97
20023;BME280;10172;42.054;24.546;2024-01-11T06:50:56;99077.03;;;-2.58;71.93
20023;BME280;10172;42.054;24.546;2024-01-11T06:53:21;99075.91;;;-2.49;70.91
20023;BME280;10172;42.054;24.546;2024-01-11T06:55:46;99068.38;;;-2.37;71.69
20023;BME280;10172;42.054;24.546;2024-01-11T06:58:13;99070.81;;;-2.36;71.34
20023;BME280;10172;42.054;24.546;2024-01-11T07:00:38;99080.50;;;-2.51;72.09
20023;BME280;10172;42.054;24.546;2024-01-11T07:03:09;99068.47;;;-2.31;72.02
20023;BME280;10172;42.054;24.546;2024-01-11T07:05:34;99068.75;;;-2.19;70.93
20023;BME280;10172;42.054;24.546;2024-01-11T07:08:00;99070.28;;;-1.97;69.66
20023;BME280;10172;42.054;24.546;2024-01-11T07:10:25;99065.28;;;-2.26;70.56
20023;BME280;10172;42.054;24.546;2024-01-11T07:12:51;99065.59;;;-2.08;70.47
20023;BME280;10172;42.054;24.546;2024-01-11T07:15:16;99063.28;;;-1.62;68.90
20023;BME280;10172;42.054;24.546;2024-01-11T07:17:42;99059.53;;;-1.47;68.53
20023;BME280;10172;42.054;24.546;2024-01-11T07:20:08;99060.19;;;-1.79;68.09
20023;BME280;10172;42.054;24.546;2024-01-11T07:22:34;99060.00;;;-1.71;69.31
20023;BME280;10172;42.054;24.546;2024-01-11T07:24:59;99059.72;;;-1.89;69.48
20023;BME280;10172;42.054;24.546;2024-01-11T07:27:25;99068.00;;;-1.79;70.35
20023;BME280;10172;42.054;24.546;2024-01-11T07:29:51;99067.16;;;-1.86;68.91
20023;BME280;10172;42.054;24.546;2024-01-11T07:32:16;99067.13;;;-1.52;68.65
20023;BME280;10172;42.054;24.546;2024-01-11T07:34:41;99064.84;;;-1.68;69.82
20023;BME280;10172;42.054;24.546;2024-01-11T07:37:07;99065.34;;;-1.51;68.99
20023;BME280;10172;42.054;24.546;2024-01-11T07:39:33;99052.06;;;-1.56;68.46
20023;BME280;10172;42.054;24.546;2024-01-11T07:41:59;99059.38;;;-1.39;69.16
20023;BME280;10172;42.054;24.546;2024-01-11T07:44:24;99052.94;;;-1.43;68.81
20023;BME280;10172;42.054;24.546;2024-01-11T07:46:50;99056.56;;;-1.44;69.64
20023;BME280;10172;42.054;24.546;2024-01-11T07:49:15;99052.25;;;-1.10;68.96
20023;BME280;10172;42.054;24.546;2024-01-11T07:51:41;99051.66;;;-1.06;68.77
20023;BME280;10172;42.054;24.546;2024-01-11T07:54:06;99047.03;;;-1.04;68.66
20023;BME280;10172;42.054;24.546;2024-01-11T07:56:32;99045.09;;;-0.89;68.59
20023;BME280;10172;42.054;24.546;2024-01-11T07:58:57;99042.28;;;-0.61;67.45
20023;BME280;10172;42.054;24.546;2024-01-11T08:01:22;99039.69;;;-0.54;67.71
20023;BME280;10172;42.054;24.546;2024-01-11T08:03:48;99039.69;;;-0.54;68.68
20023;BME280;10172;42.054;24.546;2024-01-11T08:06:17;99038.91;;;-0.48;68.89
20023;BME280;10172;42.054;24.546;2024-01-11T08:08:42;99031.00;;;0.04;67.55
20023;BME280;10172;42.054;24.546;2024-01-11T08:11:08;99027.22;;;-0.13;66.91
20023;BME280;10172;42.054;24.546;2024-01-11T08:13:33;99030.00;;;0.12;66.81
20023;BME280;10172;42.054;24.546;2024-01-11T08:16:03;99027.59;;;0.04;65.99
20023;BME280;10172;42.054;24.546;2024-01-11T08:18:33;99018.59;;;-0.27;67.24
20023;BME280;10172;42.054;24.546;2024-01-11T08:20:58;99023.38;;;-0.04;67.68
20023;BME280;10172;42.054;24.546;2024-01-11T08:23:24;99023.13;;;0.24;67.52
20023;BME280;10172;42.054;24.546;2024-01-11T08:25:49;99026.97;;;0.21;67.13
20023;BME280;10172;42.054;24.546;2024-01-11T08:28:14;99011.91;;;0.61;65.97
20023;BME280;10172;42.054;24.546;2024-01-11T08:30:40;99010.88;;;0.68;64.10
20023;BME280;10172;42.054;24.546;2024-01-11T08:33:07;99005.13;;;0.53;65.37
20023;BME280;10172;42.054;24.546;2024-01-11T08:35:33;99004.03;;;1.05;65.38
20023;BME280;10172;42.054;24.546;2024-01-11T08:37:58;99009.25;;;1.05;65.39
20023;BME280;10172;42.054;24.546;2024-01-11T08:40:24;99009.25;;;1.05;65.19
20023;BME280;10172;42.054;24.546;2024-01-11T08:42:50;99003.63;;;1.58;64.00
20023;BME280;10172;42.054;24.546;2024-01-11T08:45:16;99013.47;;;0.75;66.31
20023;BME280;10172;42.054;24.546;2024-01-11T08:47:44;99013.06;;;1.09;65.27
20023;BME280;10172;42.054;24.546;2024-01-11T08:50:13;99011.31;;;1.53;63.81
20023;BME280;10172;42.054;24.546;2024-01-11T08:52:38;98999.56;;;1.62;63.85
20023;BME280;10172;42.054;24.546;2024-01-11T08:55:05;98995.91;;;1.87;62.78
20023;BME280;10172;42.054;24.546;2024-01-11T08:57:30;98981.66;;;1.59;62.29
20023;BME280;10172;42.054;24.546;2024-01-11T08:59:56;98989.03;;;1.44;63.01
20023;BME280;10172;42.054;24.546;2024-01-11T09:02:21;98982.03;;;1.62;64.32
20023;BME280;10172;42.054;24.546;2024-01-11T09:04:48;98974.50;;;1.90;62.41
20023;BME280;10172;42.054;24.546;2024-01-11T09:07:13;98961.69;;;2.00;62.09
20023;BME280;10172;42.054;24.546;2024-01-11T09:09:39;98956.22;;;1.84;61.75
20023;BME280;10172;42.054;24.546;2024-01-11T09:12:05;98954.81;;;2.36;61.70
20023;BME280;10172;42.054;24.546;2024-01-11T09:14:30;98956.00;;;2.40;60.99
20023;BME280;10172;42.054;24.546;2024-01-11T09:16:55;98953.09;;;2.12;60.87
20023;BME280;10172;42.054;24.546;2024-01-11T09:19:21;98946.03;;;2.12;61.91
20023;BME280;10172;42.054;24.546;2024-01-11T09:21:46;98951.94;;;2.26;61.12
20023;BME280;10172;42.054;24.546;2024-01-11T09:24:12;98943.16;;;2.02;61.50
20023;BME280;10172;42.054;24.546;2024-01-11T09:26:37;98942.28;;;2.56;60.83
20023;BME280;10172;42.054;24.546;2024-01-11T09:29:02;98939.34;;;2.16;61.39
20023;BME280;10172;42.054;24.546;2024-01-11T09:31:29;98944.84;;;2.44;60.74
20023;BME280;10172;42.054;24.546;2024-01-11T09:33:54;98924.56;;;2.03;61.89
20023;BME280;10172;42.054;24.546;2024-01-11T09:36:22;98922.78;;;2.63;60.69
20023;BME280;10172;42.054;24.546;2024-01-11T09:38:47;98914.22;;;2.56;61.54
20023;BME280;10172;42.054;24.546;2024-01-11T09:41:14;98912.78;;;2.84;60.77
20023;BME280;10172;42.054;24.546;2024-01-11T09:43:42;98904.16;;;2.95;60.31
20023;BME280;10172;42.054;24.546;2024-01-11T09:46:09;98900.34;;;2.79;59.93
20023;BME280;10172;42.054;24.546;2024-01-11T09:48:37;98895.94;;;3.03;62.12
20023;BME280;10172;42.054;24.546;2024-01-11T09:51:04;98890.53;;;2.74;61.67
20023;BME280;10172;42.054;24.546;2024-01-11T09:53:33;98890.13;;;2.89;61.53
20023;BME280;10172;42.054;24.546;2024-01-11T09:56:00;98881.88;;;2.86;61.90
20023;BME280;10172;42.054;24.546;2024-01-11T09:58:26;98873.13;;;3.26;60.21
20023;BME280;10172;42.054;24.546;2024-01-11T10:00:55;98877.13;;;3.29;60.37
20023;BME280;10172;42.054;24.546;2024-01-11T10:03:24;98875.75;;;3.61;59.79
20023;BME280;10172;42.054;24.546;2024-01-11T10:05:54;98859.53;;;3.41;60.64
20023;BME280;10172;42.054;24.546;2024-01-11T10:08:23;98862.72;;;3.55;61.18
20023;BME280;10172;42.054;24.546;2024-01-11T10:10:49;98853.84;;;3.32;61.21
20023;BME280;10172;42.054;24.546;2024-01-11T10:13:17;98851.03;;;3.74;60.33
20023;BME280;10172;42.054;24.546;2024-01-11T10:15:43;98844.66;;;3.70;59.94
20023;BME280;10172;42.054;24.546;2024-01-11T10:18:09;98844.88;;;3.68;60.40
20023;BME280;10172;42.054;24.546;2024-01-11T10:20:35;98830.47;;;3.82;60.02
20023;BME280;10172;42.054;24.546;2024-01-11T10:23:02;98832.53;;;3.69;60.46
20023;BME280;10172;42.054;24.546;2024-01-11T10:25:28;98831.22;;;3.83;61.61
20023;BME280;10172;42.054;24.546;2024-01-11T10:27:54;98825.72;;;4.24;59.61
20023;BME280;10172;42.054;24.546;2024-01-11T10:30:19;98827.19;;;4.48;58.71
20023;BME280;10172;42.054;24.546;2024-01-11T10:32:47;98817.38;;;4.44;59.09
20023;BME280;10172;42.054;24.546;2024-01-11T10:35:13;98810.97;;;4.40;60.29
20023;BME280;10172;42.054;24.546;2024-01-11T10:37:38;98811.91;;;4.78;59.94
20023;BME280;10172;42.054;24.546;2024-01-11T10:40:06;98795.44;;;5.05;59.42
20023;BME280;10172;42.054;24.546;2024-01-11T10:42:44;98803.44;;;4.93;59.79
20023;BME280;10172;42.054;24.546;2024-01-11T10:45:14;98790.75;;;4.90;61.50
20023;BME280;10172;42.054;24.546;2024-01-11T10:47:50;98784.69;;;5.06;61.78
20023;BME280;10172;42.054;24.546;2024-01-11T10:50:16;98779.69;;;5.26;59.19
20023;BME280;10172;42.054;24.546;2024-01-11T10:52:51;98786.38;;;4.96;59.43
20023;BME280;10172;42.054;24.546;2024-01-11T10:55:19;98769.63;;;5.23;60.33
20023;BME280;10172;42.054;24.546;2024-01-11T10:57:46;98768.84;;;5.66;58.87
20023;BME280;10172;42.054;24.546;2024-01-11T11:00:13;98755.97;;;6.18;55.84
20023;BME280;10172;42.054;24.546;2024-01-11T11:02:40;98760.19;;;6.19;55.07
20023;BME280;10172;42.054;24.546;2024-01-11T11:05:07;98756.97;;;6.12;54.17
20023;BME280;10172;42.054;24.546;2024-01-11T11:07:35;98751.38;;;5.82;53.94
20023;BME280;10172;42.054;24.546;2024-01-11T11:10:02;98750.19;;;5.94;54.35
20023;BME280;10172;42.054;24.546;2024-01-11T11:12:31;98747.44;;;6.06;54.26
20023;BME280;10172;42.054;24.546;2024-01-11T11:14:58;98732.44;;;6.11;54.27
20023;BME280;10172;42.054;24.546;2024-01-11T11:17:24;98731.28;;;5.32;55.64
20023;BME280;10172;42.054;24.546;2024-01-11T11:19:50;98731.69;;;5.89;56.76
20023;BME280;10172;42.054;24.546;2024-01-11T11:22:17;98725.72;;;5.99;56.83
20023;BME280;10172;42.054;24.546;2024-01-11T11:24:44;98727.53;;;6.57;54.98
20023;BME280;10172;42.054;24.546;2024-01-11T11:27:13;98729.75;;;6.70;53.89
20023;BME280;10172;42.054;24.546;2024-01-11T11:29:39;98721.34;;;6.41;54.25
20023;BME280;10172;42.054;24.546;2024-01-11T11:32:05;98715.78;;;6.11;57.06
20023;BME280;10172;42.054;24.546;2024-01-11T11:34:40;98713.38;;;6.68;52.97
20023;BME280;10172;42.054;24.546;2024-01-11T11:37:07;98710.69;;;6.63;52.93
20023;BME280;10172;42.054;24.546;2024-01-11T11:39:34;98715.66;;;6.59;53.61
20023;BME280;10172;42.054;24.546;2024-01-11T11:41:59;98698.91;;;6.80;52.51
20023;BME280;10172;42.054;24.546;2024-01-11T11:44:26;98693.22;;;6.99;51.26
20023;BME280;10172;42.054;24.546;2024-01-11T11:46:52;98693.66;;;6.44;53.22
20023;BME280;10172;42.054;24.546;2024-01-11T11:49:17;98689.03;;;7.08;51.94
20023;BME280;10172;42.054;24.546;2024-01-11T11:51:43;98672.63;;;7.11;51.02
20023;BME280;10172;42.054;24.546;2024-01-11T11:54:09;98674.75;;;7.09;49.94
20023;BME280;10172;42.054;24.546;2024-01-11T11:56:39;98662.03;;;6.54;51.01
20023;BME280;10172;42.054;24.546;2024-01-11T11:59:06;98664.56;;;6.80;51.74
20023;BME280;10172;42.054;24.546;2024-01-11T12:01:33;98654.47;;;6.67;52.73
20023;BME280;10172;42.054;24.546;2024-01-11T12:04:00;98646.91;;;6.44;52.34
20023;BME280;10172;42.054;24.546;2024-01-11T12:06:27;98649.34;;;6.51;52.22
20023;BME280;10172;42.054;24.546;2024-01-11T12:08:54;98629.69;;;6.78;52.87
20023;BME280;10172;42.054;24.546;2024-01-11T12:11:21;98625.72;;;7.43;50.44
20023;BME280;10172;42.054;24.546;2024-01-11T12:13:48;98626.19;;;7.30;51.38
20023;BME280;10172;42.054;24.546;2024-01-11T12:16:14;98622.03;;;7.44;49.67
20023;BME280;10172;42.054;24.546;2024-01-11T12:18:40;98618.88;;;7.62;47.96
20023;BME280;10172;42.054;24.546;2024-01-11T12:21:06;98617.53;;;7.55;47.84
20023;BME280;10172;42.054;24.546;2024-01-11T12:23:33;98618.88;;;7.82;48.02
20023;BME280;10172;42.054;24.546;2024-01-11T12:26:01;98605.94;;;7.91;47.89
20023;BME280;10172;42.054;24.546;2024-01-11T12:28:29;98601.41;;;8.22;47.82
20023;BME280;10172;42.054;24.546;2024-01-11T12:30:54;98601.94;;;8.24;45.49
20023;BME280;10172;42.054;24.546;2024-01-11T12:33:20;98589.50;;;8.19;45.79
20023;BME280;10172;42.054;24.546;2024-01-11T12:35:47;98593.41;;;8.67;45.06
20023;BME280;10172;42.054;24.546;2024-01-11T12:38:12;98591.00;;;8.75;44.76
20023;BME280;10172;42.054;24.546;2024-01-11T12:40:38;98582.53;;;8.68;43.86
20023;BME280;10172;42.054;24.546;2024-01-11T12:43:04;98569.16;;;9.47;43.86
20023;BME280;10172;42.054;24.546;2024-01-11T12:45:31;98586.53;;;8.61;43.11
20023;BME280;10172;42.054;24.546;2024-01-11T12:47:58;98579.47;;;9.05;43.99
20023;BME280;10172;42.054;24.546;2024-01-11T12:50:25;98579.84;;;8.83;49.43